Time;durP1;ratioP1;P1;durP2;ratioP2;P2;SDS_P1;SDS_P2;PMS_P1;PMS_P2;Temp;Humidity;BMP_temperature;BMP_pressure;BME280_temperature;BME280_humidity;BME280_pressure;Samples;Min_cycle;Max_cycle;Signal;HPM_P1;HPM_P2
2021/07/12 00:06:58;;;;;;;8.90;6.80;;;;;;;18.07;73.45;98585.58;513513;1088;103124;-42
2021/07/12 00:17:06;;;;;;;14.23;7.67;;;;;;;18.02;73.27;98571.45;513036;1088;103463;-41
2021/07/12 00:27:12;;;;;;;;;;;;;;;18.10;73.84;98555.58;513201;1088;103422;-42
2021/07/12 00:37:20;;;;;;;13.60;8.03;;;;;;;18.18;74.03;98553.38;513149;1088;103127;-41
2021/07/12 00:47:27;;;;;;;13.97;8.17;;;;;;;18.14;74.13;98555.81;512791;1089;103143;-41
2021/07/12 00:57:35;;;;;;;8.90;8.00;;;;;;;17.98;74.29;98549.81;512952;1090;103130;-41
2021/07/12 01:07:41;;;;;;;11.77;7.37;;;;;;;17.86;74.11;98543.20;512803;1089;103383;-41
2021/07/12 01:17:52;;;;;;;10.13;7.10;;;;;;;17.89;74.64;98535.42;512961;1089;103507;-41
2021/07/12 01:28:29;;;;;;;8.73;7.47;;;;;;;17.89;74.63;98538.09;513049;1088;103193;-43
2021/07/12 01:38:44;;;;;;;9.47;8.23;;;;;;;18.05;74.83;98534.23;512888;1088;103119;-42
2021/07/12 01:48:51;;;;;;;11.23;7.87;;;;;;;18.02;74.88;98534.80;513735;1089;103143;-41
2021/07/12 02:09:13;;;;;;;11.37;7.93;;;;;;;17.96;74.74;98516.36;512838;1088;103052;-42
2021/07/12 02:19:22;;;;;;;14.17;7.07;;;;;;;17.86;74.65;98519.13;512876;1087;103087;-41
2021/07/12 02:29:32;;;;;;;11.45;7.60;;;;;;;17.77;74.62;98501.02;512844;1088;103928;-41
2021/07/12 02:39:40;;;;;;;12.40;7.30;;;;;;;17.69;74.58;98495.45;512912;1088;103434;-42
2021/07/12 02:49:46;;;;;;;;;;;;;;;17.67;75.21;98486.88;512777;1089;103119;-44
2021/07/12 02:59:54;;;;;;;12.00;7.37;;;;;;;17.59;75.39;98498.97;512933;1088;103221;-42
2021/07/12 03:10:03;;;;;;;11.65;7.40;;;;;;;17.77;74.89;98508.24;512996;1087;103137;-42
2021/07/12 03:20:10;;;;;;;;;;;;;;;17.91;74.80;98495.02;512741;1093;103125;-40
2021/07/12 03:30:16;;;;;;;14.90;8.87;;;;;;;18.68;75.10;98493.20;512812;1091;103104;-41
2021/07/12 03:40:25;;;;;;;12.37;9.43;;;;;;;19.05;74.48;98486.34;512925;1089;103530;-42
2021/07/12 03:50:33;;;;;;;17.87;9.03;;;;;;;19.30;74.35;98496.70;512907;1089;103125;-41
2021/07/12 04:00:39;;;;;;;15.78;8.75;;;;;;;19.61;74.37;98500.56;513149;1089;103070;-42
2021/07/12 04:10:47;;;;;;;12.33;9.67;;;;;;;21.24;73.68;98497.63;513213;1089;103100;-41
2021/07/12 04:20:55;;;;;;;14.37;9.17;;;;;;;22.87;72.23;98493.59;513394;1089;103104;-41
2021/07/12 04:31:03;;;;;;;17.50;10.50;;;;;;;22.73;70.76;98501.78;513322;1089;103124;-40
2021/07/12 04:41:14;;;;;;;22.20;13.33;;;;;;;23.33;70.75;98489.55;512917;1090;103102;-39
2021/07/12 04:51:21;;;;;;;16.87;14.53;;;;;;;22.54;70.07;98483.16;512850;1088;103057;-39
2021/07/12 05:01:33;;;;;;;17.00;11.63;;;;;;;23.09;70.51;98490.79;513346;1089;103119;-41
2021/07/12 05:11:42;;;;;;;14.87;10.23;;;;;;;23.48;68.99;98497.98;513531;1089;103514;-42
2021/07/12 05:21:50;;;;;;;11.40;9.73;;;;;;;21.89;68.64;98526.02;513426;1090;103336;-41
2021/07/12 05:31:58;;;;;;;14.37;11.27;;;;;;;20.87;69.18;98522.84;513007;1088;103121;-40
2021/07/12 05:42:05;;;;;;;;;;;;;;;20.11;70.86;98537.61;512847;1089;103111;-42
2021/07/12 05:52:13;;;;;;;15.90;11.60;;;;;;;19.71;71.55;98544.44;512754;1088;103101;-41
2021/07/12 06:02:23;;;;;;;14.35;12.13;;;;;;;19.63;71.63;98543.98;513325;1089;103066;-41
2021/07/12 06:22:39;;;;;;;20.63;12.43;;;;;;;20.15;71.90;98530.59;513129;1088;104115;-41
2021/07/12 06:32:47;;;;;;;19.13;11.70;;;;;;;20.33;72.21;98524.34;512803;1088;103121;-42
2021/07/12 06:42:53;;;;;;;17.00;12.70;;;;;;;20.06;72.44;98543.87;513035;1089;103125;-42
2021/07/12 06:53:01;;;;;;;18.20;12.53;;;;;;;20.12;72.46;98545.41;512930;1088;103143;-42
2021/07/12 07:13:16;;;;;;;25.00;17.93;;;;;;;19.52;72.74;98501.50;512826;1089;103454;-42
2021/07/12 07:23:23;;;;;;;28.00;20.18;;;;;;;19.60;73.69;98544.56;512857;1088;103144;-42
2021/07/12 07:33:31;;;;;;;29.53;21.13;;;;;;;19.61;74.06;98554.20;512789;1088;103120;-41
2021/07/12 07:43:39;;;;;;;36.43;26.23;;;;;;;19.93;74.26;98532.02;513081;1088;103137;-41
2021/07/12 07:53:47;;;;;;;41.20;26.90;;;;;;;20.94;74.29;98527.81;512885;1088;103105;-43
2021/07/12 08:03:54;;;;;;;37.80;24.85;;;;;;;22.13;73.94;98512.27;512833;1088;103105;-41
2021/07/12 08:14:03;;;;;;;33.93;25.07;;;;;;;22.57;73.55;98519.47;512823;1089;103124;-40
2021/07/12 08:24:10;;;;;;;27.37;22.57;;;;;;;22.82;72.67;98540.37;512947;1088;103051;-40
2021/07/12 08:34:18;;;;;;;21.77;19.48;;;;;;;22.27;72.52;98554.19;512953;1089;103102;-42
2021/07/12 08:44:25;;;;;;;24.10;20.80;;;;;;;21.63;72.68;98575.05;512748;1088;103428;-40
2021/07/12 08:54:32;;;;;;;;;;;;;;;21.51;73.21;98590.11;512839;1088;103215;-40
2021/07/12 09:04:40;;;;;;;26.27;21.40;;;;;;;21.58;73.13;98577.86;513034;1089;103116;-42
2021/07/12 09:15:00;;;;;;;25.17;21.43;;;;;;;21.64;73.27;98589.30;512830;1088;103143;-41
2021/07/12 09:25:11;;;;;;;24.30;20.93;;;;;;;21.76;73.19;98589.55;512938;1088;103176;-41
2021/07/12 09:35:20;;;;;;;23.33;20.93;;;;;;;21.71;73.26;98603.13;512993;1088;103163;-41
2021/07/12 09:55:41;;;;;;;25.23;21.20;;;;;;;21.66;73.18;98598.66;512701;1089;103053;-40
2021/07/12 10:15:55;;;;;;;21.17;19.03;;;;;;;21.57;73.17;98535.91;512950;1088;103479;-40
2021/07/12 10:26:03;;;;;;;19.20;16.73;;;;;;;21.40;73.73;98544.61;512927;1088;103521;-39
2021/07/12 10:36:37;;;;;;;22.63;19.23;;;;;;;21.44;73.58;98550.18;513011;1088;103426;-40
2021/07/12 10:46:46;;;;;;;20.17;18.07;;;;;;;21.54;73.49;98557.25;512745;1089;103422;-40
2021/07/12 10:57:00;;;;;;;18.63;16.37;;;;;;;21.44;73.70;98545.59;512870;1089;103141;-40
2021/07/12 11:07:06;;;;;;;22.27;17.60;;;;;;;21.52;73.24;98540.59;512915;1089;103378;-41
2021/07/12 11:17:34;;;;;;;17.37;15.53;;;;;;;21.45;73.91;98531.05;512826;1089;104171;-42
2021/07/12 11:37:51;;;;;;;20.53;16.00;;;;;;;21.82;72.85;98517.59;512784;1089;103102;-40
2021/07/12 11:48:00;;;;;;;16.68;14.90;;;;;;;22.11;72.90;98515.27;513068;1089;103402;-40
2021/07/12 11:58:08;;;;;;;18.20;16.30;;;;;;;22.21;72.22;98514.20;512898;1089;103071;-40
2021/07/12 12:08:15;;;;;;;20.80;15.87;;;;;;;22.35;72.27;98506.84;512955;1088;103406;-41
2021/07/12 12:18:27;;;;;;;16.57;14.67;;;;;;;22.35;71.85;98509.55;512825;1089;103383;-40
2021/07/12 12:28:37;;;;;;;15.73;13.57;;;;;;;22.37;71.37;98491.16;512790;1089;103175;-41
2021/07/12 12:48:59;;;;;;;17.95;14.80;;;;;;;22.15;71.02;98470.45;513156;1088;103470;-42
2021/07/12 12:59:09;;;;;;;21.93;14.00;;;;;;;22.12;70.61;98457.62;512907;1090;103511;-40
2021/07/12 13:09:25;;;;;;;18.80;13.83;;;;;;;22.41;71.18;98450.92;513096;1088;103508;-41
2021/07/12 13:19:32;;;;;;;16.50;12.70;;;;;;;22.50;70.65;98438.30;513092;1088;103393;-42
2021/07/12 13:29:38;;;;;;;;;;;;;;;22.48;69.62;98452.08;512905;1090;104205;-38
2021/07/12 13:49:54;;;;;;;17.93;13.03;;;;;;;22.49;69.43;98456.36;513152;1089;103125;-40
2021/07/12 14:00:02;;;;;;;11.83;9.70;;;;;;;22.23;69.04;98444.66;513008;1088;103156;-39
2021/07/12 14:20:17;;;;;;;19.20;11.03;;;;;;;21.75;69.48;98426.48;513191;1093;103219;-41
2021/07/12 14:40:31;;;;;;;13.50;9.85;;;;;;;21.87;69.64;98415.97;512900;1090;103240;-39
2021/07/12 14:50:39;;;;;;;;;;;;;;;21.84;69.74;98415.79;512965;1088;103100;-40
2021/07/12 15:00:47;;;;;;;8.85;7.90;;;;;;;21.61;69.16;98433.85;513051;1090;103127;-41
2021/07/12 15:10:53;;;;;;;10.13;6.73;;;;;;;21.58;68.94;98421.81;512869;1089;103192;-41
2021/07/12 15:21:01;;;;;;;;;;;;;;;21.74;68.11;98430.28;513133;1090;103380;-42
2021/07/12 15:31:09;;;;;;;5.50;5.03;;;;;;;22.20;67.69;98418.36;512930;1088;103121;-42
2021/07/12 15:41:14;;;;;;;;;;;;;;;22.53;67.08;98408.03;513212;1089;103100;-40
2021/07/12 15:51:24;;;;;;;6.50;5.00;;;;;;;22.46;65.62;98389.61;512858;1089;103444;-40
2021/07/12 16:01:32;;;;;;;7.37;4.33;;;;;;;22.63;65.47;98378.88;512987;1090;103544;-41
2021/07/12 16:11:36;;;;;;;;;;;;;;;22.80;64.57;98347.67;512836;1089;103504;-41
2021/07/12 16:21:43;;;;;;;3.47;3.17;;;;;;;22.80;62.09;98344.98;512798;1088;103514;-40
2021/07/12 16:31:53;;;;;;;5.77;3.57;;;;;;;22.94;61.63;98341.03;513008;1089;103108;-41
2021/07/12 16:42:01;;;;;;;3.53;2.97;;;;;;;23.01;62.21;98335.18;512969;1088;103131;-41
2021/07/12 17:12:19;;;;;;;4.50;3.95;;;;;;;22.83;61.12;98342.47;513088;1089;104402;-41
2021/07/12 17:22:27;;;;;;;3.73;3.43;;;;;;;22.55;60.58;98333.86;512922;1088;103125;-40
2021/07/12 17:32:36;;;;;;;4.13;3.47;;;;;;;22.22;61.19;98325.38;513012;1089;103139;-38
2021/07/12 17:42:45;;;;;;;5.53;3.23;;;;;;;22.12;61.54;98322.19;512977;1092;103152;-41
2021/07/12 17:52:52;;;;;;;6.15;3.60;;;;;;;21.77;61.48;98316.66;512987;1089;103192;-40
2021/07/12 18:03:00;;;;;;;5.25;3.65;;;;;;;21.55;62.09;98305.95;513018;1089;103178;-43
2021/07/12 18:13:09;;;;;;;3.40;2.87;;;;;;;21.44;62.78;98292.75;512737;1092;103630;-41
2021/07/12 18:23:17;;;;;;;3.53;3.23;;;;;;;21.26;63.33;98293.75;512807;1089;103446;-43
2021/07/12 18:33:25;;;;;;;5.73;4.20;;;;;;;20.89;64.13;98302.17;512915;1088;103470;-41
2021/07/12 18:43:33;;;;;;;6.63;3.90;;;;;;;20.41;64.50;98332.25;512830;1088;103163;-42
2021/07/12 18:53:39;;;;;;;5.20;3.95;;;;;;;20.03;65.34;98351.22;512978;1088;103159;-41
2021/07/12 19:03:47;;;;;;;11.90;5.83;;;;;;;19.65;66.07;98360.53;512784;1089;103525;-39
2021/07/12 19:13:55;;;;;;;8.83;3.55;;;;;;;19.29;66.74;98380.64;512939;1091;103089;-41
2021/07/12 19:24:02;;;;;;;13.05;4.40;;;;;;;19.10;67.15;98379.86;512921;1090;103034;-42
2021/07/12 19:34:10;;;;;;;7.95;4.85;;;;;;;18.87;67.64;98383.41;513077;1090;103185;-41
2021/07/12 19:54:23;;;;;;;11.30;5.90;;;;;;;18.21;68.33;98371.63;512896;1088;103380;-42
2021/07/12 20:04:31;;;;;;;7.67;6.43;;;;;;;17.81;68.72;98364.86;512957;1089;103118;-42
2021/07/12 20:14:37;;;;;;;7.97;5.90;;;;;;;17.72;69.59;98395.95;512926;1088;103521;-43
2021/07/12 20:24:45;;;;;;;7.00;6.00;;;;;;;17.52;70.30;98382.75;512729;1090;103121;-40
2021/07/12 20:34:53;;;;;;;9.55;7.38;;;;;;;17.40;70.67;98361.72;513029;1088;103218;-40
2021/07/12 20:45:01;;;;;;;14.78;7.18;;;;;;;17.39;70.94;98360.13;513036;1088;103064;-43
2021/07/12 20:55:10;;;;;;;10.88;6.90;;;;;;;17.34;71.41;98373.53;513051;1090;103143;-39
2021/07/12 21:05:16;;;;;;;10.00;6.75;;;;;;;17.46;71.79;98365.94;513190;1088;103136;-41
2021/07/12 21:15:24;;;;;;;9.17;5.40;;;;;;;17.31;72.01;98366.88;512958;1089;103122;-40
2021/07/12 21:25:32;;;;;;;7.68;5.20;;;;;;;17.48;72.59;98350.41;512917;1088;103136;-42
2021/07/12 21:35:40;;;;;;;8.57;4.97;;;;;;;17.58;72.88;98323.61;513111;1088;103127;-41
2021/07/12 21:45:47;;;;;;;5.43;4.70;;;;;;;17.55;72.62;98324.17;513015;1088;103158;-41
2021/07/12 21:55:55;;;;;;;6.27;4.30;;;;;;;17.58;73.31;98302.22;512989;1089;103123;-41
2021/07/12 22:06:03;;;;;;;10.63;5.03;;;;;;;17.65;72.85;98297.32;513237;1088;103421;-42
2021/07/12 22:16:10;;;;;;;9.00;5.98;;;;;;;17.56;72.88;98308.93;512960;1088;103512;-42
2021/07/12 22:26:18;;;;;;;12.73;6.93;;;;;;;17.46;73.93;98318.63;513091;1088;103457;-41
2021/07/12 22:36:25;;;;;;;8.28;6.38;;;;;;;17.48;73.48;98315.66;512757;1089;103501;-41
2021/07/12 22:46:31;;;;;;;8.27;6.30;;;;;;;17.44;73.50;98322.66;513245;1089;103101;-41
2021/07/12 22:56:39;;;;;;;6.98;6.25;;;;;;;17.53;73.83;98325.53;513174;1088;103131;-41
2021/07/12 23:06:47;;;;;;;9.50;5.93;;;;;;;17.40;73.51;98308.27;512908;1090;103435;-41
2021/07/12 23:27:01;;;;;;;9.80;6.53;;;;;;;17.30;74.28;98286.99;513002;1089;104721;-41
2021/07/12 23:37:09;;;;;;;8.33;7.03;;;;;;;17.30;74.31;98270.96;513132;1090;103162;-40
2021/07/12 23:47:17;;;;;;;15.53;11.00;;;;;;;17.25;74.46;98277.13;512969;1089;103540;-41
2021/07/12 23:57:22;;;;;;;18.10;11.23;;;;;;;17.23;74.31;98273.14;512741;1090;103115;-41
